Ana Sayfa
METAR-TAF:

METAR-TAF

Havaalanları :

Pointe-Noire, Kongo

Enlem: 04-49S, Boylam: 011-54E, yükseklik: 17 m

Güncel hava durumu gözlemi

Rapor saat 16:00 UTC de 1 saat ve 2 dakika önce yapıldı.
Rüzgar değişken yönden 1 kt
Sıcaklık 28°C
Nem 74%
Basınç 1008 hPa
Görüş mesafesi 10 km veya daha fazla
1500 ft yükseklikte parçalı bulutlu

METAR: FCPP 141600Z VRB01KT 9999 SCT015 28/23 Q1008 NOSIG

Saat: 18:02 (17:02 UTC)

Tahmin

Rapor saat 11:00 UTC de 6 saat ve 2 dakika önce yapıldı.
Ayın 14'si saat 12 UTC'den ayın 15'si saat 12 UTC'ye kadar geçerli Tahmin
Rüzgar güney/güneybatıdan 5 kt
Görüş mesafesi: 8000 m
1000 ft yükseklikte parçalı bulutlu
2300 ft yükseklikte parçalı çok bulutlu
Olasılık 40%
ayın 15'si saat 05 UTC'den ayın 15'si saat 08 UTC'ye kadar
Görüş mesafesi: 4000 m
Pus

TAF: FCPP 141100Z 1412/1512 20005KT 8000 SCT010 BKN023 PROB40 1505/1508 4000 BR

4.000'den fazla havaalanı için hava durumu gözlemleri ve tahminleri (METAR ve TAF raporları).

Kullanılabilir istasyonlar harita üzerinde sarı ve kırmızı noktalarla gösterilir.

İstasyonun adını görmek için fareyi noktanın üzerinde gezdirin.

Sonrasında hava gözlem ve tahminlerini görmek için tıklayın.

Haritayı değiştirmek için: yaklaştırmak için siyah artı işaretli yeşil düğmeye ve uzaklaştırmak için de eksi işaretli düğmeye hızla tıklayın; bitişik haritalar için yeşil okları kullanın.


METAR-TAF: